sensor_id;sensor_type;location;lat;lon;timestamp;P1;durP1;ratioP1;P2;durP2;ratioP2
8102;SDS011;4094;49.948;11.574;2023-12-20T00:01:54;12.63;;;11.83;;
8102;SDS011;4094;49.948;11.574;2023-12-20T00:04:45;12.73;;;11.93;;
8102;SDS011;4094;49.948;11.574;2023-12-20T00:07:34;13.10;;;12.20;;
8102;SDS011;4094;49.948;11.574;2023-12-20T00:10:24;13.40;;;12.50;;
8102;SDS011;4094;49.948;11.574;2023-12-20T00:13:14;13.10;;;12.23;;
8102;SDS011;4094;49.948;11.574;2023-12-20T00:16:03;12.53;;;11.67;;
8102;SDS011;4094;49.948;11.574;2023-12-20T00:18:53;12.83;;;12.03;;
8102;SDS011;4094;49.948;11.574;2023-12-20T00:21:44;12.90;;;12.03;;
8102;SDS011;4094;49.948;11.574;2023-12-20T00:24:33;12.63;;;11.83;;
8102;SDS011;4094;49.948;11.574;2023-12-20T00:27:22;13.20;;;12.30;;
8102;SDS011;4094;49.948;11.574;2023-12-20T00:30:12;12.33;;;11.53;;
8102;SDS011;4094;49.948;11.574;2023-12-20T00:33:02;12.50;;;11.70;;
8102;SDS011;4094;49.948;11.574;2023-12-20T00:35:52;12.60;;;11.70;;
8102;SDS011;4094;49.948;11.574;2023-12-20T00:38:43;12.70;;;11.80;;
8102;SDS011;4094;49.948;11.574;2023-12-20T00:41:32;12.80;;;12.00;;
8102;SDS011;4094;49.948;11.574;2023-12-20T00:44:22;13.10;;;12.20;;
8102;SDS011;4094;49.948;11.574;2023-12-20T00:47:12;12.87;;;12.07;;
8102;SDS011;4094;49.948;11.574;2023-12-20T00:50:03;13.20;;;12.20;;
8102;SDS011;4094;49.948;11.574;2023-12-20T00:52:53;11.90;;;11.20;;
8102;SDS011;4094;49.948;11.574;2023-12-20T00:55:45;12.23;;;11.43;;
8102;SDS011;4094;49.948;11.574;2023-12-20T00:58:35;12.13;;;11.43;;
8102;SDS011;4094;49.948;11.574;2023-12-20T01:01:24;12.17;;;11.37;;
8102;SDS011;4094;49.948;11.574;2023-12-20T01:04:13;11.70;;;11.07;;
8102;SDS011;4094;49.948;11.574;2023-12-20T01:07:03;11.00;;;10.40;;
8102;SDS011;4094;49.948;11.574;2023-12-20T01:09:53;10.43;;;9.93;;
8102;SDS011;4094;49.948;11.574;2023-12-20T01:12:44;10.60;;;10.00;;
8102;SDS011;4094;49.948;11.574;2023-12-20T01:15:33;10.33;;;9.73;;
8102;SDS011;4094;49.948;11.574;2023-12-20T01:18:23;10.47;;;9.77;;
8102;SDS011;4094;49.948;11.574;2023-12-20T01:21:12;10.60;;;10.00;;
8102;SDS011;4094;49.948;11.574;2023-12-20T01:24:02;10.20;;;9.60;;
8102;SDS011;4094;49.948;11.574;2023-12-20T01:26:52;10.13;;;9.63;;
8102;SDS011;4094;49.948;11.574;2023-12-20T01:29:43;10.17;;;9.67;;
8102;SDS011;4094;49.948;11.574;2023-12-20T01:32:32;10.13;;;9.60;;
8102;SDS011;4094;49.948;11.574;2023-12-20T01:35:22;10.00;;;9.50;;
8102;SDS011;4094;49.948;11.574;2023-12-20T01:38:12;9.70;;;9.20;;
8102;SDS011;4094;49.948;11.574;2023-12-20T01:41:02;9.70;;;9.20;;
8102;SDS011;4094;49.948;11.574;2023-12-20T01:43:52;10.03;;;9.43;;
8102;SDS011;4094;49.948;11.574;2023-12-20T01:46:43;9.60;;;9.10;;
8102;SDS011;4094;49.948;11.574;2023-12-20T01:49:32;9.83;;;9.33;;
8102;SDS011;4094;49.948;11.574;2023-12-20T01:52:22;10.20;;;9.70;;
8102;SDS011;4094;49.948;11.574;2023-12-20T01:55:13;9.83;;;9.33;;
8102;SDS011;4094;49.948;11.574;2023-12-20T01:58:04;9.50;;;9.00;;
8102;SDS011;4094;49.948;11.574;2023-12-20T02:00:54;9.53;;;8.93;;
8102;SDS011;4094;49.948;11.574;2023-12-20T02:03:46;9.80;;;9.30;;
8102;SDS011;4094;49.948;11.574;2023-12-20T02:06:36;9.07;;;8.67;;
8102;SDS011;4094;49.948;11.574;2023-12-20T02:09:29;9.20;;;8.63;;
8102;SDS011;4094;49.948;11.574;2023-12-20T02:12:19;9.30;;;8.90;;
8102;SDS011;4094;49.948;11.574;2023-12-20T02:15:08;9.13;;;8.63;;
8102;SDS011;4094;49.948;11.574;2023-12-20T02:18:00;9.20;;;8.70;;
8102;SDS011;4094;49.948;11.574;2023-12-20T02:20:51;9.20;;;8.80;;
8102;SDS011;4094;49.948;11.574;2023-12-20T02:23:42;9.40;;;8.90;;
8102;SDS011;4094;49.948;11.574;2023-12-20T02:26:32;9.10;;;8.70;;
8102;SDS011;4094;49.948;11.574;2023-12-20T02:29:22;9.00;;;8.60;;
8102;SDS011;4094;49.948;11.574;2023-12-20T02:32:11;9.10;;;8.70;;
8102;SDS011;4094;49.948;11.574;2023-12-20T02:35:00;8.50;;;8.10;;
8102;SDS011;4094;49.948;11.574;2023-12-20T02:37:51;8.87;;;8.30;;
8102;SDS011;4094;49.948;11.574;2023-12-20T02:40:41;8.30;;;7.90;;
8102;SDS011;4094;49.948;11.574;2023-12-20T02:43:36;8.40;;;8.00;;
8102;SDS011;4094;49.948;11.574;2023-12-20T02:46:26;8.43;;;8.03;;
8102;SDS011;4094;49.948;11.574;2023-12-20T02:49:16;8.80;;;8.40;;
8102;SDS011;4094;49.948;11.574;2023-12-20T02:52:06;9.13;;;8.63;;
8102;SDS011;4094;49.948;11.574;2023-12-20T02:54:55;8.50;;;8.10;;
8102;SDS011;4094;49.948;11.574;2023-12-20T02:57:45;8.20;;;7.90;;
8102;SDS011;4094;49.948;11.574;2023-12-20T03:00:35;8.50;;;8.10;;
8102;SDS011;4094;49.948;11.574;2023-12-20T03:03:25;8.70;;;8.30;;
8102;SDS011;4094;49.948;11.574;2023-12-20T03:06:16;7.87;;;7.47;;
8102;SDS011;4094;49.948;11.574;2023-12-20T03:09:06;8.57;;;8.17;;
8102;SDS011;4094;49.948;11.574;2023-12-20T03:11:56;8.47;;;8.07;;
8102;SDS011;4094;49.948;11.574;2023-12-20T03:14:47;8.50;;;8.10;;
8102;SDS011;4094;49.948;11.574;2023-12-20T03:17:36;7.90;;;7.60;;
8102;SDS011;4094;49.948;11.574;2023-12-20T03:20:26;8.30;;;7.90;;
8102;SDS011;4094;49.948;11.574;2023-12-20T03:23:16;8.63;;;8.23;;
8102;SDS011;4094;49.948;11.574;2023-12-20T03:26:07;9.00;;;8.50;;
8102;SDS011;4094;49.948;11.574;2023-12-20T03:28:56;8.27;;;7.87;;
8102;SDS011;4094;49.948;11.574;2023-12-20T03:31:47;8.60;;;8.20;;
8102;SDS011;4094;49.948;11.574;2023-12-20T03:34:37;8.40;;;8.00;;
8102;SDS011;4094;49.948;11.574;2023-12-20T03:37:28;8.97;;;8.47;;
8102;SDS011;4094;49.948;11.574;2023-12-20T03:40:17;8.53;;;8.13;;
8102;SDS011;4094;49.948;11.574;2023-12-20T03:43:07;8.50;;;8.10;;
8102;SDS011;4094;49.948;11.574;2023-12-20T03:45:56;8.33;;;7.97;;
8102;SDS011;4094;49.948;11.574;2023-12-20T03:48:47;8.40;;;8.00;;
8102;SDS011;4094;49.948;11.574;2023-12-20T03:51:36;8.43;;;8.03;;
8102;SDS011;4094;49.948;11.574;2023-12-20T03:54:26;8.07;;;7.67;;
8102;SDS011;4094;49.948;11.574;2023-12-20T03:57:15;7.90;;;7.60;;
8102;SDS011;4094;49.948;11.574;2023-12-20T04:00:05;8.17;;;7.87;;
8102;SDS011;4094;49.948;11.574;2023-12-20T04:03:03;7.97;;;7.67;;
8102;SDS011;4094;49.948;11.574;2023-12-20T04:05:54;8.20;;;7.90;;
8102;SDS011;4094;49.948;11.574;2023-12-20T04:08:43;8.20;;;7.90;;
8102;SDS011;4094;49.948;11.574;2023-12-20T04:11:32;8.03;;;7.73;;
8102;SDS011;4094;49.948;11.574;2023-12-20T04:14:22;7.80;;;7.50;;
8102;SDS011;4094;49.948;11.574;2023-12-20T04:17:12;8.10;;;7.70;;
8102;SDS011;4094;49.948;11.574;2023-12-20T04:20:08;7.73;;;7.43;;
8102;SDS011;4094;49.948;11.574;2023-12-20T04:22:59;8.17;;;7.83;;
8102;SDS011;4094;49.948;11.574;2023-12-20T04:25:48;7.50;;;7.20;;
8102;SDS011;4094;49.948;11.574;2023-12-20T04:28:37;7.87;;;7.57;;
8102;SDS011;4094;49.948;11.574;2023-12-20T04:31:27;7.97;;;7.57;;
8102;SDS011;4094;49.948;11.574;2023-12-20T04:34:17;7.70;;;7.40;;
8102;SDS011;4094;49.948;11.574;2023-12-20T04:37:07;7.77;;;7.37;;
8102;SDS011;4094;49.948;11.574;2023-12-20T04:39:57;8.00;;;7.70;;
8102;SDS011;4094;49.948;11.574;2023-12-20T04:42:47;8.30;;;7.90;;
8102;SDS011;4094;49.948;11.574;2023-12-20T04:45:36;8.50;;;8.10;;
8102;SDS011;4094;49.948;11.574;2023-12-20T04:48:26;8.23;;;7.90;;
8102;SDS011;4094;49.948;11.574;2023-12-20T04:51:15;8.20;;;7.90;;
8102;SDS011;4094;49.948;11.574;2023-12-20T04:54:11;8.10;;;7.80;;
8102;SDS011;4094;49.948;11.574;2023-12-20T04:57:03;8.30;;;7.90;;
8102;SDS011;4094;49.948;11.574;2023-12-20T04:59:53;8.07;;;7.73;;
8102;SDS011;4094;49.948;11.574;2023-12-20T05:02:42;7.83;;;7.53;;
8102;SDS011;4094;49.948;11.574;2023-12-20T05:05:31;8.00;;;7.70;;
8102;SDS011;4094;49.948;11.574;2023-12-20T05:08:21;8.17;;;7.87;;
8102;SDS011;4094;49.948;11.574;2023-12-20T05:11:12;8.30;;;7.90;;
8102;SDS011;4094;49.948;11.574;2023-12-20T05:14:04;8.13;;;7.83;;
8102;SDS011;4094;49.948;11.574;2023-12-20T05:16:53;8.03;;;7.73;;
8102;SDS011;4094;49.948;11.574;2023-12-20T05:19:42;8.10;;;7.70;;
8102;SDS011;4094;49.948;11.574;2023-12-20T05:22:32;7.90;;;7.60;;
8102;SDS011;4094;49.948;11.574;2023-12-20T05:25:24;7.70;;;7.40;;
8102;SDS011;4094;49.948;11.574;2023-12-20T05:28:13;7.73;;;7.43;;
8102;SDS011;4094;49.948;11.574;2023-12-20T05:31:05;8.40;;;8.00;;
8102;SDS011;4094;49.948;11.574;2023-12-20T05:33:56;7.80;;;7.50;;
8102;SDS011;4094;49.948;11.574;2023-12-20T05:36:46;7.80;;;7.50;;
8102;SDS011;4094;49.948;11.574;2023-12-20T05:39:35;8.20;;;7.80;;
8102;SDS011;4094;49.948;11.574;2023-12-20T05:42:25;8.03;;;7.73;;
8102;SDS011;4094;49.948;11.574;2023-12-20T05:45:14;8.00;;;7.70;;
8102;SDS011;4094;49.948;11.574;2023-12-20T05:48:05;8.60;;;8.00;;
8102;SDS011;4094;49.948;11.574;2023-12-20T05:50:55;8.03;;;7.73;;
8102;SDS011;4094;49.948;11.574;2023-12-20T05:53:44;8.20;;;7.80;;
8102;SDS011;4094;49.948;11.574;2023-12-20T05:56:33;7.80;;;7.50;;
8102;SDS011;4094;49.948;11.574;2023-12-20T05:59:23;8.10;;;7.80;;
8102;SDS011;4094;49.948;11.574;2023-12-20T06:02:13;8.13;;;7.73;;
8102;SDS011;4094;49.948;11.574;2023-12-20T06:05:05;8.50;;;8.10;;
8102;SDS011;4094;49.948;11.574;2023-12-20T06:07:56;8.57;;;8.07;;
8102;SDS011;4094;49.948;11.574;2023-12-20T06:10:48;8.30;;;8.00;;
8102;SDS011;4094;49.948;11.574;2023-12-20T06:13:38;8.50;;;8.10;;
8102;SDS011;4094;49.948;11.574;2023-12-20T06:16:27;8.20;;;7.80;;
8102;SDS011;4094;49.948;11.574;2023-12-20T06:19:16;8.47;;;8.07;;
8102;SDS011;4094;49.948;11.574;2023-12-20T06:22:07;8.30;;;7.90;;
8102;SDS011;4094;49.948;11.574;2023-12-20T06:24:57;8.40;;;8.00;;
8102;SDS011;4094;49.948;11.574;2023-12-20T06:27:46;8.40;;;8.10;;
8102;SDS011;4094;49.948;11.574;2023-12-20T06:30:36;8.40;;;8.00;;
8102;SDS011;4094;49.948;11.574;2023-12-20T06:33:26;8.70;;;8.30;;
8102;SDS011;4094;49.948;11.574;2023-12-20T06:36:23;8.40;;;8.00;;
8102;SDS011;4094;49.948;11.574;2023-12-20T06:39:14;8.53;;;8.13;;
8102;SDS011;4094;49.948;11.574;2023-12-20T06:42:04;8.47;;;7.97;;
8102;SDS011;4094;49.948;11.574;2023-12-20T06:44:54;8.40;;;8.10;;
8102;SDS011;4094;49.948;11.574;2023-12-20T06:47:43;8.20;;;7.80;;
8102;SDS011;4094;49.948;11.574;2023-12-20T06:50:34;8.60;;;8.20;;
8102;SDS011;4094;49.948;11.574;2023-12-20T06:53:28;8.37;;;8.00;;
8102;SDS011;4094;49.948;11.574;2023-12-20T06:56:19;8.50;;;8.10;;
8102;SDS011;4094;49.948;11.574;2023-12-20T06:59:08;8.23;;;7.87;;
8102;SDS011;4094;49.948;11.574;2023-12-20T07:01:57;8.37;;;7.97;;
8102;SDS011;4094;49.948;11.574;2023-12-20T07:04:48;8.43;;;8.03;;
8102;SDS011;4094;49.948;11.574;2023-12-20T07:07:38;7.93;;;7.63;;
8102;SDS011;4094;49.948;11.574;2023-12-20T07:10:28;7.93;;;7.53;;
8102;SDS011;4094;49.948;11.574;2023-12-20T07:13:18;8.33;;;8.03;;
8102;SDS011;4094;49.948;11.574;2023-12-20T07:16:08;8.43;;;8.03;;
8102;SDS011;4094;49.948;11.574;2023-12-20T07:18:58;8.60;;;8.20;;
8102;SDS011;4094;49.948;11.574;2023-12-20T07:21:47;8.70;;;8.30;;
8102;SDS011;4094;49.948;11.574;2023-12-20T07:24:36;8.90;;;8.50;;
8102;SDS011;4094;49.948;11.574;2023-12-20T07:27:26;8.93;;;8.43;;
8102;SDS011;4094;49.948;11.574;2023-12-20T07:30:17;8.77;;;8.33;;
8102;SDS011;4094;49.948;11.574;2023-12-20T07:33:08;9.10;;;8.63;;
8102;SDS011;4094;49.948;11.574;2023-12-20T07:36:00;9.50;;;9.00;;
8102;SDS011;4094;49.948;11.574;2023-12-20T07:38:50;9.20;;;8.80;;
8102;SDS011;4094;49.948;11.574;2023-12-20T07:41:40;9.90;;;9.30;;
8102;SDS011;4094;49.948;11.574;2023-12-20T07:44:31;9.13;;;8.70;;
8102;SDS011;4094;49.948;11.574;2023-12-20T07:47:22;9.20;;;8.70;;
8102;SDS011;4094;49.948;11.574;2023-12-20T07:50:13;9.20;;;8.73;;
8102;SDS011;4094;49.948;11.574;2023-12-20T07:53:03;8.93;;;8.53;;
8102;SDS011;4094;49.948;11.574;2023-12-20T07:55:53;9.30;;;8.80;;
8102;SDS011;4094;49.948;11.574;2023-12-20T07:58:43;9.57;;;9.07;;
8102;SDS011;4094;49.948;11.574;2023-12-20T08:01:40;9.80;;;9.00;;
8102;SDS011;4094;49.948;11.574;2023-12-20T08:04:32;9.57;;;9.00;;
8102;SDS011;4094;49.948;11.574;2023-12-20T08:07:30;9.30;;;8.80;;
8102;SDS011;4094;49.948;11.574;2023-12-20T08:10:19;9.27;;;8.77;;
8102;SDS011;4094;49.948;11.574;2023-12-20T08:13:09;9.47;;;8.87;;
8102;SDS011;4094;49.948;11.574;2023-12-20T08:15:59;9.43;;;8.93;;
8102;SDS011;4094;49.948;11.574;2023-12-20T08:18:52;9.67;;;9.17;;
8102;SDS011;4094;49.948;11.574;2023-12-20T08:21:43;9.23;;;8.80;;
8102;SDS011;4094;49.948;11.574;2023-12-20T08:24:33;9.77;;;9.27;;
8102;SDS011;4094;49.948;11.574;2023-12-20T08:27:23;9.70;;;9.17;;
8102;SDS011;4094;49.948;11.574;2023-12-20T08:30:13;9.93;;;9.43;;
8102;SDS011;4094;49.948;11.574;2023-12-20T08:33:05;10.00;;;9.30;;
8102;SDS011;4094;49.948;11.574;2023-12-20T08:35:59;10.50;;;9.70;;
8102;SDS011;4094;49.948;11.574;2023-12-20T08:38:54;10.00;;;9.40;;
8102;SDS011;4094;49.948;11.574;2023-12-20T08:41:44;10.53;;;9.73;;
8102;SDS011;4094;49.948;11.574;2023-12-20T08:44:34;9.93;;;9.33;;
8102;SDS011;4094;49.948;11.574;2023-12-20T08:47:23;10.20;;;9.60;;
8102;SDS011;4094;49.948;11.574;2023-12-20T08:50:14;10.00;;;9.30;;
8102;SDS011;4094;49.948;11.574;2023-12-20T08:53:04;10.13;;;9.53;;
8102;SDS011;4094;49.948;11.574;2023-12-20T08:55:55;10.03;;;9.43;;
8102;SDS011;4094;49.948;11.574;2023-12-20T08:58:49;9.87;;;9.33;;
8102;SDS011;4094;49.948;11.574;2023-12-20T09:01:40;9.80;;;9.30;;
8102;SDS011;4094;49.948;11.574;2023-12-20T09:04:30;9.77;;;9.17;;
8102;SDS011;4094;49.948;11.574;2023-12-20T09:07:22;10.30;;;9.70;;
8102;SDS011;4094;49.948;11.574;2023-12-20T09:10:13;9.70;;;9.20;;
8102;SDS011;4094;49.948;11.574;2023-12-20T09:13:07;9.67;;;9.07;;
8102;SDS011;4094;49.948;11.574;2023-12-20T09:15:57;9.50;;;8.80;;
8102;SDS011;4094;49.948;11.574;2023-12-20T09:18:48;9.87;;;9.20;;
8102;SDS011;4094;49.948;11.574;2023-12-20T09:21:39;9.20;;;8.60;;
8102;SDS011;4094;49.948;11.574;2023-12-20T09:24:29;9.30;;;8.87;;
8102;SDS011;4094;49.948;11.574;2023-12-20T09:27:18;9.70;;;9.10;;
8102;SDS011;4094;49.948;11.574;2023-12-20T09:30:10;8.93;;;8.43;;
8102;SDS011;4094;49.948;11.574;2023-12-20T09:33:12;9.30;;;8.73;;
8102;SDS011;4094;49.948;11.574;2023-12-20T09:36:01;8.90;;;8.40;;
8102;SDS011;4094;49.948;11.574;2023-12-20T09:38:51;8.53;;;8.00;;
8102;SDS011;4094;49.948;11.574;2023-12-20T09:41:42;8.10;;;7.60;;
8102;SDS011;4094;49.948;11.574;2023-12-20T09:44:34;7.93;;;7.43;;
8102;SDS011;4094;49.948;11.574;2023-12-20T09:47:25;7.50;;;7.07;;
8102;SDS011;4094;49.948;11.574;2023-12-20T09:50:15;8.00;;;7.40;;
8102;SDS011;4094;49.948;11.574;2023-12-20T09:53:07;8.13;;;7.63;;
8102;SDS011;4094;49.948;11.574;2023-12-20T09:55:58;7.53;;;7.03;;
8102;SDS011;4094;49.948;11.574;2023-12-20T09:58:49;7.43;;;7.03;;
8102;SDS011;4094;49.948;11.574;2023-12-20T10:01:38;8.30;;;7.63;;
8102;SDS011;4094;49.948;11.574;2023-12-20T10:04:30;7.73;;;7.23;;
8102;SDS011;4094;49.948;11.574;2023-12-20T10:07:21;8.60;;;7.90;;
8102;SDS011;4094;49.948;11.574;2023-12-20T10:10:13;8.10;;;7.50;;
8102;SDS011;4094;49.948;11.574;2023-12-20T10:13:04;8.33;;;7.83;;
8102;SDS011;4094;49.948;11.574;2023-12-20T10:15:55;8.57;;;7.97;;
8102;SDS011;4094;49.948;11.574;2023-12-20T10:18:44;8.23;;;7.63;;
8102;SDS011;4094;49.948;11.574;2023-12-20T10:21:35;8.03;;;7.53;;
8102;SDS011;4094;49.948;11.574;2023-12-20T10:24:25;8.87;;;8.27;;
8102;SDS011;4094;49.948;11.574;2023-12-20T10:27:17;8.83;;;8.23;;
8102;SDS011;4094;49.948;11.574;2023-12-20T10:30:08;8.23;;;7.63;;
8102;SDS011;4094;49.948;11.574;2023-12-20T10:32:58;8.57;;;7.97;;
8102;SDS011;4094;49.948;11.574;2023-12-20T10:35:48;9.27;;;8.47;;
8102;SDS011;4094;49.948;11.574;2023-12-20T10:38:39;8.73;;;8.13;;
8102;SDS011;4094;49.948;11.574;2023-12-20T10:41:36;8.23;;;7.63;;
8102;SDS011;4094;49.948;11.574;2023-12-20T10:44:29;9.40;;;8.60;;
8102;SDS011;4094;49.948;11.574;2023-12-20T10:47:19;9.00;;;8.33;;
8102;SDS011;4094;49.948;11.574;2023-12-20T10:50:09;8.77;;;8.07;;
8102;SDS011;4094;49.948;11.574;2023-12-20T10:52:59;9.50;;;8.57;;
8102;SDS011;4094;49.948;11.574;2023-12-20T10:55:51;8.70;;;8.10;;
8102;SDS011;4094;49.948;11.574;2023-12-20T10:58:42;8.77;;;8.10;;
8102;SDS011;4094;49.948;11.574;2023-12-20T11:01:33;9.20;;;8.63;;
8102;SDS011;4094;49.948;11.574;2023-12-20T11:04:25;8.80;;;8.23;;
8102;SDS011;4094;49.948;11.574;2023-12-20T11:07:21;8.57;;;7.97;;
8102;SDS011;4094;49.948;11.574;2023-12-20T11:10:19;9.20;;;8.40;;
8102;SDS011;4094;49.948;11.574;2023-12-20T11:13:12;9.47;;;8.63;;
8102;SDS011;4094;49.948;11.574;2023-12-20T11:16:10;9.30;;;8.67;;
8102;SDS011;4094;49.948;11.574;2023-12-20T11:19:04;9.13;;;8.30;;
8102;SDS011;4094;49.948;11.574;2023-12-20T11:21:54;9.00;;;8.30;;
8102;SDS011;4094;49.948;11.574;2023-12-20T11:24:46;8.90;;;8.20;;
8102;SDS011;4094;49.948;11.574;2023-12-20T11:27:36;9.40;;;8.60;;
8102;SDS011;4094;49.948;11.574;2023-12-20T11:30:38;9.40;;;8.57;;
8102;SDS011;4094;49.948;11.574;2023-12-20T11:33:30;9.10;;;8.30;;
8102;SDS011;4094;49.948;11.574;2023-12-20T11:36:32;9.37;;;8.67;;
8102;SDS011;4094;49.948;11.574;2023-12-20T11:39:29;9.70;;;8.97;;
8102;SDS011;4094;49.948;11.574;2023-12-20T11:42:20;9.40;;;8.80;;
8102;SDS011;4094;49.948;11.574;2023-12-20T11:45:09;9.10;;;8.40;;
8102;SDS011;4094;49.948;11.574;2023-12-20T11:48:04;8.73;;;8.20;;
8102;SDS011;4094;49.948;11.574;2023-12-20T11:50:55;9.07;;;8.47;;
8102;SDS011;4094;49.948;11.574;2023-12-20T11:53:44;9.43;;;8.60;;
8102;SDS011;4094;49.948;11.574;2023-12-20T11:56:35;9.20;;;8.57;;
8102;SDS011;4094;49.948;11.574;2023-12-20T11:59:24;9.83;;;8.90;;
8102;SDS011;4094;49.948;11.574;2023-12-20T12:02:13;9.50;;;8.70;;
8102;SDS011;4094;49.948;11.574;2023-12-20T12:05:05;9.83;;;9.03;;
8102;SDS011;4094;49.948;11.574;2023-12-20T12:07:56;10.03;;;9.00;;
8102;SDS011;4094;49.948;11.574;2023-12-20T12:10:45;9.67;;;8.77;;
8102;SDS011;4094;49.948;11.574;2023-12-20T12:13:35;9.70;;;8.80;;
8102;SDS011;4094;49.948;11.574;2023-12-20T12:16:25;9.00;;;8.40;;
8102;SDS011;4094;49.948;11.574;2023-12-20T12:19:19;9.03;;;8.37;;
8102;SDS011;4094;49.948;11.574;2023-12-20T12:22:12;9.67;;;8.87;;
8102;SDS011;4094;49.948;11.574;2023-12-20T12:25:10;8.67;;;8.17;;
8102;SDS011;4094;49.948;11.574;2023-12-20T12:28:02;9.27;;;8.50;;
8102;SDS011;4094;49.948;11.574;2023-12-20T12:30:58;8.90;;;8.33;;
8102;SDS011;4094;49.948;11.574;2023-12-20T12:33:48;9.80;;;9.00;;
8102;SDS011;4094;49.948;11.574;2023-12-20T12:36:39;9.27;;;8.57;;
8102;SDS011;4094;49.948;11.574;2023-12-20T12:39:30;9.40;;;8.63;;
8102;SDS011;4094;49.948;11.574;2023-12-20T12:42:19;9.67;;;8.97;;
8102;SDS011;4094;49.948;11.574;2023-12-20T12:45:09;9.07;;;8.37;;
8102;SDS011;4094;49.948;11.574;2023-12-20T12:48:00;11.07;;;9.03;;
8102;SDS011;4094;49.948;11.574;2023-12-20T12:50:50;9.70;;;8.63;;
8102;SDS011;4094;49.948;11.574;2023-12-20T12:53:41;9.63;;;8.93;;
8102;SDS011;4094;49.948;11.574;2023-12-20T12:59:51;9.53;;;8.93;;
8102;SDS011;4094;49.948;11.574;2023-12-20T13:02:41;9.83;;;8.87;;
8102;SDS011;4094;49.948;11.574;2023-12-20T13:05:30;9.30;;;8.60;;
8102;SDS011;4094;49.948;11.574;2023-12-20T13:08:25;9.43;;;8.50;;
8102;SDS011;4094;49.948;11.574;2023-12-20T13:11:15;9.50;;;8.70;;
8102;SDS011;4094;49.948;11.574;2023-12-20T13:14:06;9.80;;;8.90;;
8102;SDS011;4094;49.948;11.574;2023-12-20T13:16:58;9.37;;;8.67;;
8102;SDS011;4094;49.948;11.574;2023-12-20T13:19:47;9.07;;;8.47;;
8102;SDS011;4094;49.948;11.574;2023-12-20T13:22:38;8.97;;;8.30;;
8102;SDS011;4094;49.948;11.574;2023-12-20T13:25:27;9.20;;;8.40;;
8102;SDS011;4094;49.948;11.574;2023-12-20T13:28:16;9.03;;;8.43;;
8102;SDS011;4094;49.948;11.574;2023-12-20T13:31:08;9.20;;;8.60;;
8102;SDS011;4094;49.948;11.574;2023-12-20T13:33:58;9.47;;;8.87;;
8102;SDS011;4094;49.948;11.574;2023-12-20T13:36:48;9.40;;;8.80;;
8102;SDS011;4094;49.948;11.574;2023-12-20T13:39:39;9.20;;;8.60;;
8102;SDS011;4094;49.948;11.574;2023-12-20T13:42:29;9.60;;;9.00;;
8102;SDS011;4094;49.948;11.574;2023-12-20T13:45:18;8.97;;;8.43;;
8102;SDS011;4094;49.948;11.574;2023-12-20T13:48:08;9.00;;;8.40;;
8102;SDS011;4094;49.948;11.574;2023-12-20T13:50:58;9.67;;;8.97;;
8102;SDS011;4094;49.948;11.574;2023-12-20T13:53:49;9.57;;;8.97;;
8102;SDS011;4094;49.948;11.574;2023-12-20T13:56:38;9.77;;;9.07;;
8102;SDS011;4094;49.948;11.574;2023-12-20T13:59:44;9.87;;;9.10;;
8102;SDS011;4094;49.948;11.574;2023-12-20T14:02:33;10.00;;;9.20;;
8102;SDS011;4094;49.948;11.574;2023-12-20T14:05:25;9.57;;;9.03;;
8102;SDS011;4094;49.948;11.574;2023-12-20T14:08:16;9.33;;;8.73;;
8102;SDS011;4094;49.948;11.574;2023-12-20T14:11:06;9.73;;;9.13;;
8102;SDS011;4094;49.948;11.574;2023-12-20T14:13:55;8.90;;;8.30;;
8102;SDS011;4094;49.948;11.574;2023-12-20T14:16:46;9.53;;;8.93;;
8102;SDS011;4094;49.948;11.574;2023-12-20T14:19:37;9.77;;;9.13;;
8102;SDS011;4094;49.948;11.574;2023-12-20T14:22:28;9.60;;;8.80;;
8102;SDS011;4094;49.948;11.574;2023-12-20T14:25:18;9.80;;;8.80;;
8102;SDS011;4094;49.948;11.574;2023-12-20T14:28:07;10.57;;;9.47;;
8102;SDS011;4094;49.948;11.574;2023-12-20T14:30:57;9.73;;;8.87;;
8102;SDS011;4094;49.948;11.574;2023-12-20T14:33:48;9.70;;;8.83;;
8102;SDS011;4094;49.948;11.574;2023-12-20T14:36:41;9.37;;;8.67;;
8102;SDS011;4094;49.948;11.574;2023-12-20T14:39:32;9.47;;;8.77;;
8102;SDS011;4094;49.948;11.574;2023-12-20T14:42:22;9.73;;;8.97;;
8102;SDS011;4094;49.948;11.574;2023-12-20T14:45:11;9.13;;;8.37;;
8102;SDS011;4094;49.948;11.574;2023-12-20T14:48:02;10.13;;;9.13;;
8102;SDS011;4094;49.948;11.574;2023-12-20T14:50:53;9.87;;;9.07;;
8102;SDS011;4094;49.948;11.574;2023-12-20T14:53:43;10.23;;;9.33;;
8102;SDS011;4094;49.948;11.574;2023-12-20T14:56:36;9.73;;;9.03;;
8102;SDS011;4094;49.948;11.574;2023-12-20T14:59:26;10.00;;;9.30;;
8102;SDS011;4094;49.948;11.574;2023-12-20T15:02:16;9.50;;;8.83;;
8102;SDS011;4094;49.948;11.574;2023-12-20T15:05:06;10.10;;;9.40;;
8102;SDS011;4094;49.948;11.574;2023-12-20T15:07:56;10.57;;;9.67;;
8102;SDS011;4094;49.948;11.574;2023-12-20T15:10:45;10.00;;;9.20;;
8102;SDS011;4094;49.948;11.574;2023-12-20T15:13:36;9.50;;;8.90;;
8102;SDS011;4094;49.948;11.574;2023-12-20T15:16:26;10.00;;;9.27;;
8102;SDS011;4094;49.948;11.574;2023-12-20T15:19:16;9.60;;;8.80;;
8102;SDS011;4094;49.948;11.574;2023-12-20T15:22:06;9.93;;;9.13;;
8102;SDS011;4094;49.948;11.574;2023-12-20T15:24:56;10.40;;;9.53;;
8102;SDS011;4094;49.948;11.574;2023-12-20T15:27:46;10.13;;;9.43;;
8102;SDS011;4094;49.948;11.574;2023-12-20T15:30:41;10.47;;;9.47;;
8102;SDS011;4094;49.948;11.574;2023-12-20T15:33:30;11.00;;;9.60;;
8102;SDS011;4094;49.948;11.574;2023-12-20T15:36:20;10.07;;;9.17;;
8102;SDS011;4094;49.948;11.574;2023-12-20T15:39:10;10.90;;;9.90;;
8102;SDS011;4094;49.948;11.574;2023-12-20T15:42:03;9.83;;;9.13;;
8102;SDS011;4094;49.948;11.574;2023-12-20T15:44:53;10.10;;;9.23;;
8102;SDS011;4094;49.948;11.574;2023-12-20T15:47:44;10.23;;;9.40;;
8102;SDS011;4094;49.948;11.574;2023-12-20T15:50:34;10.13;;;9.43;;
8102;SDS011;4094;49.948;11.574;2023-12-20T15:53:23;10.30;;;9.33;;
8102;SDS011;4094;49.948;11.574;2023-12-20T15:56:13;10.37;;;9.47;;
8102;SDS011;4094;49.948;11.574;2023-12-20T15:59:02;9.97;;;9.27;;
8102;SDS011;4094;49.948;11.574;2023-12-20T16:01:52;9.80;;;9.10;;
8102;SDS011;4094;49.948;11.574;2023-12-20T16:04:43;10.37;;;9.57;;
8102;SDS011;4094;49.948;11.574;2023-12-20T16:07:33;10.03;;;9.33;;
8102;SDS011;4094;49.948;11.574;2023-12-20T16:10:24;10.47;;;9.77;;
8102;SDS011;4094;49.948;11.574;2023-12-20T16:13:14;10.57;;;9.60;;
8102;SDS011;4094;49.948;11.574;2023-12-20T16:16:05;10.03;;;9.23;;
8102;SDS011;4094;49.948;11.574;2023-12-20T16:18:55;10.50;;;9.70;;
8102;SDS011;4094;49.948;11.574;2023-12-20T16:21:46;10.37;;;9.57;;
8102;SDS011;4094;49.948;11.574;2023-12-20T16:24:36;10.20;;;9.60;;
8102;SDS011;4094;49.948;11.574;2023-12-20T16:27:26;9.53;;;8.90;;
8102;SDS011;4094;49.948;11.574;2023-12-20T16:30:17;9.50;;;8.80;;
8102;SDS011;4094;49.948;11.574;2023-12-20T16:33:10;9.70;;;9.10;;
8102;SDS011;4094;49.948;11.574;2023-12-20T16:36:00;10.20;;;9.50;;
8102;SDS011;4094;49.948;11.574;2023-12-20T16:38:52;10.00;;;9.10;;
8102;SDS011;4094;49.948;11.574;2023-12-20T16:41:41;9.80;;;9.03;;
8102;SDS011;4094;49.948;11.574;2023-12-20T16:44:31;10.23;;;9.33;;
8102;SDS011;4094;49.948;11.574;2023-12-20T16:47:21;10.07;;;9.23;;
8102;SDS011;4094;49.948;11.574;2023-12-20T16:50:10;10.60;;;9.83;;
8102;SDS011;4094;49.948;11.574;2023-12-20T16:53:02;10.07;;;9.47;;
8102;SDS011;4094;49.948;11.574;2023-12-20T16:55:53;10.07;;;9.30;;
8102;SDS011;4094;49.948;11.574;2023-12-20T16:58:42;10.30;;;9.50;;
8102;SDS011;4094;49.948;11.574;2023-12-20T17:01:32;10.03;;;9.33;;
8102;SDS011;4094;49.948;11.574;2023-12-20T17:04:21;10.73;;;9.93;;
8102;SDS011;4094;49.948;11.574;2023-12-20T17:07:11;11.40;;;10.30;;
8102;SDS011;4094;49.948;11.574;2023-12-20T17:10:01;10.77;;;9.77;;
8102;SDS011;4094;49.948;11.574;2023-12-20T17:12:52;10.50;;;9.80;;
8102;SDS011;4094;49.948;11.574;2023-12-20T17:15:42;10.10;;;9.33;;
8102;SDS011;4094;49.948;11.574;2023-12-20T17:18:31;10.97;;;10.17;;
8102;SDS011;4094;49.948;11.574;2023-12-20T17:21:21;10.80;;;10.07;;
8102;SDS011;4094;49.948;11.574;2023-12-20T17:24:11;10.90;;;10.00;;